createdAt,value
2023-12-13T00:01:00.205Z,59.48
2023-12-13T00:02:05.808Z,59.58
2023-12-13T00:03:11.382Z,59.47
2023-12-13T00:04:17.027Z,59.79
2023-12-13T00:05:22.788Z,59.48
2023-12-13T00:06:28.357Z,59.67
2023-12-13T00:07:34.826Z,59.61
2023-12-13T00:08:40.426Z,59.72
2023-12-13T00:09:45.871Z,59.67
2023-12-13T00:10:51.994Z,59.58
2023-12-13T00:11:57.558Z,59.48
2023-12-13T00:13:03.006Z,59.79
2023-12-13T00:14:08.522Z,59.62
2023-12-13T00:15:13.973Z,59.7
2023-12-13T00:16:19.542Z,59.58
2023-12-13T00:17:25.190Z,59.84
2023-12-13T00:18:30.967Z,59.82
2023-12-13T00:19:36.590Z,59.71
2023-12-13T00:20:42.136Z,59.66
2023-12-13T00:21:47.626Z,59.98
2023-12-13T00:22:53.253Z,59.81
2023-12-13T00:23:58.796Z,59.87
2023-12-13T00:25:04.344Z,59.84
2023-12-13T00:26:09.841Z,59.83
2023-12-13T00:27:15.316Z,59.77
2023-12-13T00:28:20.959Z,59.71
2023-12-13T00:29:26.434Z,59.85
2023-12-13T00:30:32.030Z,59.78
2023-12-13T00:31:37.695Z,59.78
2023-12-13T00:32:43.313Z,59.97
2023-12-13T00:33:48.946Z,60.09
2023-12-13T00:34:54.604Z,59.85
2023-12-13T00:36:00.105Z,59.86
2023-12-13T00:37:05.655Z,60.04
2023-12-13T00:38:11.098Z,59.98
2023-12-13T00:39:16.551Z,60.28
2023-12-13T00:40:22.219Z,59.85
2023-12-13T00:41:27.759Z,59.93
2023-12-13T00:42:33.227Z,59.98
2023-12-13T00:43:38.849Z,59.92
2023-12-13T00:44:44.374Z,59.83
2023-12-13T00:45:52.075Z,60.02
2023-12-13T00:46:57.659Z,59.75
2023-12-13T00:48:03.313Z,59.79
2023-12-13T00:49:09.190Z,59.95
2023-12-13T00:50:14.721Z,59.96
2023-12-13T00:51:20.161Z,60.03
2023-12-13T00:52:25.753Z,60.04
2023-12-13T00:53:31.237Z,59.88
2023-12-13T00:54:36.749Z,59.98
2023-12-13T00:55:42.290Z,59.73
2023-12-13T00:56:47.768Z,60.02
2023-12-13T00:57:53.201Z,59.96
2023-12-13T00:58:58.730Z,60.03
2023-12-13T01:00:04.300Z,60.2
2023-12-13T01:01:10.041Z,60.22
2023-12-13T01:02:15.803Z,60.22
2023-12-13T01:03:21.760Z,60.2
2023-12-13T01:04:27.502Z,60.16
2023-12-13T01:05:33.141Z,60.21
2023-12-13T01:06:38.778Z,60.2
2023-12-13T01:07:44.415Z,60.1
2023-12-13T01:08:49.929Z,60.09
2023-12-13T01:09:55.420Z,60.25
2023-12-13T01:11:01.003Z,60.29
2023-12-13T01:12:06.497Z,60.27
2023-12-13T01:13:12.119Z,60.3
2023-12-13T01:14:17.589Z,60.25
2023-12-13T01:15:23.093Z,60.29
2023-12-13T01:16:28.614Z,60.2
2023-12-13T01:17:34.794Z,60.14
2023-12-13T01:18:40.779Z,60.25
2023-12-13T01:19:46.421Z,60.24
2023-12-13T01:20:51.892Z,60.27
2023-12-13T01:21:57.359Z,60.29
2023-12-13T01:23:02.849Z,60.52
2023-12-13T01:24:08.325Z,60.11
2023-12-13T01:25:13.936Z,60.22
2023-12-13T01:26:19.454Z,60.44
2023-12-13T01:27:24.966Z,60.32
2023-12-13T01:28:30.607Z,60.17
2023-12-13T01:29:36.145Z,60.44
2023-12-13T01:30:41.796Z,60.09
2023-12-13T01:31:47.428Z,60.13
2023-12-13T01:32:53.147Z,60.22
2023-12-13T01:33:58.746Z,60.09
2023-12-13T01:35:04.198Z,60.1
2023-12-13T01:36:09.668Z,60.04
2023-12-13T01:37:15.322Z,60.04
2023-12-13T01:38:20.837Z,60.01
2023-12-13T01:39:26.288Z,60.99
2023-12-13T01:40:32.021Z,60.81
2023-12-13T01:41:37.529Z,60.59
2023-12-13T01:42:43.015Z,60.59
2023-12-13T01:43:48.807Z,60.49
2023-12-13T01:44:54.451Z,60.56
2023-12-13T01:45:59.892Z,60.48
2023-12-13T01:47:05.376Z,60.48
2023-12-13T01:48:11.017Z,60.3
2023-12-13T01:49:16.910Z,60.37
2023-12-13T01:50:22.474Z,60.43
2023-12-13T01:51:27.914Z,60.48
2023-12-13T01:52:33.439Z,60.41
2023-12-13T01:53:38.938Z,60.3
2023-12-13T01:54:44.402Z,60.5
2023-12-13T01:55:50.047Z,60.3
2023-12-13T01:56:56.609Z,60.4
2023-12-13T01:58:02.093Z,60.51
2023-12-13T01:59:07.625Z,60.69
2023-12-13T02:00:13.125Z,60.63
2023-12-13T02:01:18.931Z,60.56
2023-12-13T02:02:24.582Z,60.34
2023-12-13T02:03:30.109Z,60.78
2023-12-13T02:04:35.683Z,60.69
2023-12-13T02:05:41.294Z,61.04
2023-12-13T02:06:46.793Z,60.55
2023-12-13T02:07:52.464Z,60.51
2023-12-13T02:08:57.973Z,60.97
2023-12-13T02:10:03.415Z,60.56
2023-12-13T02:11:08.915Z,60.85
2023-12-13T02:12:14.507Z,60.39
2023-12-13T02:13:20.234Z,60.38
2023-12-13T02:14:27.952Z,60.72
2023-12-13T02:15:33.442Z,60.47
2023-12-13T02:16:39.014Z,60.41
2023-12-13T02:17:44.697Z,60.55
2023-12-13T02:18:50.510Z,60.7
2023-12-13T02:19:56.258Z,60.59
2023-12-13T02:21:01.769Z,60.48
2023-12-13T02:22:07.256Z,60.29
2023-12-13T02:23:12.773Z,60.44
2023-12-13T02:24:18.237Z,60.69
2023-12-13T02:25:23.844Z,60.41
2023-12-13T02:26:29.309Z,60.45
2023-12-13T02:27:35.756Z,60.37
2023-12-13T02:28:41.620Z,60.21
2023-12-13T02:29:47.136Z,60.33
2023-12-13T02:30:52.823Z,60.21
2023-12-13T02:31:58.500Z,60.1
2023-12-13T02:33:04.317Z,60.34
2023-12-13T02:34:10.291Z,60.15
2023-12-13T02:35:15.843Z,60.38
2023-12-13T02:36:21.588Z,60.15
2023-12-13T02:37:27.130Z,60.31
2023-12-13T02:38:32.626Z,60.43
2023-12-13T02:39:38.115Z,60.12
2023-12-13T02:40:43.743Z,60.26
2023-12-13T02:41:49.337Z,60.21
2023-12-13T02:42:54.802Z,60.24
2023-12-13T02:44:00.278Z,60.38
2023-12-13T02:45:05.731Z,60.74
2023-12-13T02:46:11.384Z,60.17
2023-12-13T02:47:16.893Z,60.24
2023-12-13T02:48:22.920Z,59.94
2023-12-13T02:49:29.836Z,60.18
2023-12-13T02:50:35.348Z,60.03
2023-12-13T02:51:40.874Z,60.11
2023-12-13T02:52:46.618Z,60.08
2023-12-13T02:53:52.145Z,60.04
2023-12-13T02:54:57.598Z,60.16
2023-12-13T02:56:03.109Z,60.34
2023-12-13T02:57:08.576Z,60.5
2023-12-13T02:58:14.297Z,60.38
2023-12-13T02:59:19.753Z,60.44
2023-12-13T03:00:25.177Z,60.19
2023-12-13T03:01:31.034Z,60.28
2023-12-13T03:02:36.779Z,60.13
2023-12-13T03:03:42.260Z,60.41
2023-12-13T03:04:47.914Z,60.39
2023-12-13T03:05:53.731Z,60.21
2023-12-13T03:06:59.224Z,60.25
2023-12-13T03:08:04.827Z,60.15
2023-12-13T03:09:10.338Z,60.28
2023-12-13T03:10:15.924Z,60.54
2023-12-13T03:11:21.446Z,60.06
2023-12-13T03:12:27.039Z,60.24
2023-12-13T03:13:32.715Z,60.18
2023-12-13T03:14:38.269Z,60.12
2023-12-13T03:15:43.742Z,60.46
2023-12-13T03:16:49.328Z,60.34
2023-12-13T03:17:55.613Z,60.03
2023-12-13T03:19:01.604Z,59.94
2023-12-13T03:20:07.464Z,60.08
2023-12-13T03:21:13.048Z,60.05
2023-12-13T03:22:18.636Z,60.06
2023-12-13T03:23:24.126Z,60.19
2023-12-13T03:24:29.611Z,60.16
2023-12-13T03:25:35.451Z,60.15
2023-12-13T03:26:40.977Z,60.33
2023-12-13T03:27:46.909Z,60.23
2023-12-13T03:28:52.614Z,60.31
2023-12-13T03:29:58.062Z,60.05
2023-12-13T03:31:03.741Z,60.09
2023-12-13T03:32:09.257Z,60.13
2023-12-13T03:33:15.011Z,60.24
2023-12-13T03:34:20.758Z,60.13
2023-12-13T03:35:26.236Z,60.01
2023-12-13T03:36:31.691Z,60.03
2023-12-13T03:37:38.243Z,60.46
2023-12-13T03:38:43.927Z,60.13
2023-12-13T03:39:49.377Z,60.16
2023-12-13T03:40:54.957Z,60.21
2023-12-13T03:42:00.508Z,60.63
2023-12-13T03:43:06.012Z,60.35
2023-12-13T03:44:11.549Z,60.2
2023-12-13T03:45:17.013Z,60.12
2023-12-13T03:46:22.818Z,60.34
2023-12-13T03:47:28.860Z,60.35
2023-12-13T03:48:34.735Z,60.17
2023-12-13T03:49:40.624Z,60.05
2023-12-13T03:50:46.106Z,60.68
2023-12-13T03:51:51.559Z,60.12
2023-12-13T03:52:57.222Z,60.1
2023-12-13T03:54:02.685Z,60.22
2023-12-13T03:55:08.136Z,60.82
2023-12-13T03:56:13.603Z,60.96
2023-12-13T03:57:19.093Z,60.23
2023-12-13T03:58:24.672Z,60.67
2023-12-13T03:59:30.301Z,60.56
2023-12-13T04:00:36.098Z,60.86
2023-12-13T04:01:41.679Z,61.11
2023-12-13T04:02:47.192Z,60.53
2023-12-13T04:03:53.069Z,60.99
2023-12-13T04:04:58.705Z,61.57
2023-12-13T04:06:04.310Z,61.71
2023-12-13T04:07:09.860Z,60.6
2023-12-13T04:08:15.321Z,60.33
2023-12-13T04:09:20.823Z,60.55
2023-12-13T04:10:26.416Z,60.47
2023-12-13T04:11:31.889Z,60.15
2023-12-13T04:12:37.370Z,60.56
2023-12-13T04:13:45.155Z,61.58
2023-12-13T04:14:50.667Z,60.73
2023-12-13T04:15:56.134Z,60.94
2023-12-13T04:17:01.771Z,61.14
2023-12-13T04:18:07.698Z,61.56
2023-12-13T04:19:13.630Z,60.95
2023-12-13T04:20:19.220Z,61.72
2023-12-13T04:21:24.671Z,61.47
2023-12-13T04:22:30.284Z,61.25
2023-12-13T04:23:35.832Z,61.11
2023-12-13T04:24:41.268Z,61.72
2023-12-13T04:25:46.830Z,61.28
2023-12-13T04:26:52.361Z,61.08
2023-12-13T04:27:57.791Z,61.43
2023-12-13T04:29:03.264Z,60.96
2023-12-13T04:30:08.725Z,61.81
2023-12-13T04:31:14.361Z,61.56
2023-12-13T04:32:19.864Z,62.07
2023-12-13T04:33:25.374Z,62.24
2023-12-13T04:34:30.915Z,61.15
2023-12-13T04:35:36.401Z,61.02
2023-12-13T04:36:41.852Z,61.29
2023-12-13T04:37:47.613Z,61.28
2023-12-13T04:38:53.152Z,61.21
2023-12-13T04:39:58.596Z,61.42
2023-12-13T04:41:04.111Z,61.94
2023-12-13T04:42:09.620Z,61.28
2023-12-13T04:43:15.191Z,61.69
2023-12-13T04:44:20.721Z,60.98
2023-12-13T04:45:26.156Z,60.61
2023-12-13T04:46:31.684Z,61.49
2023-12-13T04:47:38.182Z,61.71
2023-12-13T04:48:44.263Z,61.17
2023-12-13T04:49:49.904Z,60.96
2023-12-13T04:50:55.569Z,61.2
2023-12-13T04:52:01.061Z,60.82
2023-12-13T04:53:06.582Z,60.79
2023-12-13T04:54:12.038Z,60.88
2023-12-13T04:55:17.600Z,60.81
2023-12-13T04:56:23.104Z,61.22
2023-12-13T04:57:28.575Z,61.25
2023-12-13T04:58:34.677Z,60.54
2023-12-13T04:59:40.454Z,60.79
2023-12-13T05:00:46.048Z,61.09
2023-12-13T05:01:51.672Z,60.54
2023-12-13T05:02:57.173Z,61.56
2023-12-13T05:04:02.960Z,61.55
2023-12-13T05:05:08.845Z,61.62
2023-12-13T05:06:14.357Z,59.54
2023-12-13T05:07:19.897Z,57.61
2023-12-13T05:08:25.405Z,57.45
2023-12-13T05:09:30.858Z,57.53
2023-12-13T05:10:36.451Z,57.75
2023-12-13T05:11:42.007Z,57.07
2023-12-13T05:12:47.526Z,56.63
2023-12-13T05:13:53.264Z,56.57
2023-12-13T05:14:58.788Z,56.39
2023-12-13T05:16:04.255Z,56.65
2023-12-13T05:17:09.769Z,56.42
2023-12-13T05:18:15.547Z,56.61
2023-12-13T05:19:21.364Z,56.3
2023-12-13T05:20:27.018Z,56.22
2023-12-13T05:21:32.574Z,56.19
2023-12-13T05:22:38.239Z,56.01
2023-12-13T05:23:43.749Z,55.68
2023-12-13T05:24:49.229Z,55.76
2023-12-13T05:25:55.020Z,55.66
2023-12-13T05:27:00.462Z,55.65
2023-12-13T05:28:05.959Z,55.4
2023-12-13T05:29:11.435Z,55.35
2023-12-13T05:30:17.039Z,55.33
2023-12-13T05:31:22.749Z,55.21
2023-12-13T05:32:28.347Z,55.13
2023-12-13T05:33:33.962Z,55.13
2023-12-13T05:34:39.593Z,55.13
2023-12-13T05:35:45.069Z,55.02
2023-12-13T05:36:50.578Z,55.06
2023-12-13T05:37:56.216Z,55.06
2023-12-13T05:39:01.800Z,55.02
2023-12-13T05:40:07.323Z,55.12
2023-12-13T05:41:12.775Z,55.1
2023-12-13T05:42:18.314Z,55.07
2023-12-13T05:43:26.088Z,55.15
2023-12-13T05:44:31.532Z,55.22
2023-12-13T05:45:36.998Z,55.17
2023-12-13T05:46:42.594Z,55.17
2023-12-13T05:47:48.394Z,55.25
2023-12-13T05:48:54.322Z,55.28
2023-12-13T05:49:59.975Z,55.3
2023-12-13T05:51:05.597Z,55.19
2023-12-13T05:52:11.178Z,55.26
2023-12-13T05:53:16.721Z,55.31
2023-12-13T05:54:22.155Z,55.35
2023-12-13T05:55:27.649Z,55.28
2023-12-13T05:56:33.117Z,55.26
2023-12-13T05:57:39.322Z,55.29
2023-12-13T05:58:45.097Z,55.26
2023-12-13T05:59:50.669Z,55.24
2023-12-13T06:00:56.359Z,55.28
2023-12-13T06:02:02.191Z,55.21
2023-12-13T06:03:08.655Z,55.32
2023-12-13T06:04:14.515Z,55.34
2023-12-13T06:05:20.275Z,55.38
2023-12-13T06:06:25.868Z,55.29
2023-12-13T06:07:31.583Z,55.28
2023-12-13T06:08:37.255Z,55.22
2023-12-13T06:09:42.694Z,55.24
2023-12-13T06:10:48.324Z,55.17
2023-12-13T06:11:53.819Z,55.11
2023-12-13T06:12:59.287Z,55.17
2023-12-13T06:14:04.809Z,55.14
2023-12-13T06:15:10.272Z,54.91
2023-12-13T06:16:16.044Z,54.77
2023-12-13T06:17:21.667Z,54.38
2023-12-13T06:18:27.462Z,54.07
2023-12-13T06:19:33.263Z,54.17
2023-12-13T06:20:38.765Z,54.63
2023-12-13T06:21:44.251Z,54.52
2023-12-13T06:22:49.972Z,54.54
2023-12-13T06:23:55.579Z,54.6
2023-12-13T06:25:01.061Z,54.43
2023-12-13T06:26:06.616Z,54.37
2023-12-13T06:27:12.080Z,54.32
2023-12-13T06:28:17.638Z,54.38
2023-12-13T06:29:23.214Z,54.32
2023-12-13T06:30:28.795Z,54.21
2023-12-13T06:31:34.459Z,54.32
2023-12-13T06:32:39.999Z,54.32
2023-12-13T06:33:45.730Z,54.46
2023-12-13T06:34:51.388Z,54.26
2023-12-13T06:35:56.856Z,54.22
2023-12-13T06:37:02.332Z,53.8
2023-12-13T06:38:08.052Z,54.09
2023-12-13T06:39:13.565Z,54.11
2023-12-13T06:40:20.169Z,53.83
2023-12-13T06:41:25.671Z,53.99
2023-12-13T06:42:31.365Z,54.12
2023-12-13T06:43:37.059Z,54.12
2023-12-13T06:44:42.515Z,53.99
2023-12-13T06:45:48.011Z,53.95
2023-12-13T06:46:53.597Z,53.74
2023-12-13T06:47:59.372Z,53.77
2023-12-13T06:49:05.180Z,53.77
2023-12-13T06:50:10.879Z,53.89
2023-12-13T06:51:16.693Z,53.8
2023-12-13T06:52:22.389Z,53.86
2023-12-13T06:53:27.929Z,53.73
2023-12-13T06:54:33.480Z,53.62
2023-12-13T06:55:39.179Z,53.66
2023-12-13T06:56:44.677Z,53.83
2023-12-13T06:57:50.233Z,53.61
2023-12-13T06:58:56.003Z,53.58
2023-12-13T07:00:01.563Z,53.61
2023-12-13T07:01:07.332Z,53.68
2023-12-13T07:02:12.857Z,53.7
2023-12-13T07:03:18.710Z,53.82
2023-12-13T07:04:27.212Z,53.77
2023-12-13T07:05:34.557Z,53.9
2023-12-13T07:06:40.081Z,53.97
2023-12-13T07:07:45.672Z,53.86
2023-12-13T07:08:51.192Z,53.94
2023-12-13T07:09:56.668Z,54
2023-12-13T07:11:02.385Z,53.92
2023-12-13T07:12:07.891Z,54.03
2023-12-13T07:13:13.380Z,53.98
2023-12-13T07:14:19.039Z,54
2023-12-13T07:15:24.569Z,54.13
2023-12-13T07:16:30.114Z,54.07
2023-12-13T07:17:36.678Z,54.06
2023-12-13T07:18:42.488Z,54.12
2023-12-13T07:19:48.233Z,54.17
2023-12-13T07:20:53.729Z,54.17
2023-12-13T07:21:59.214Z,54.11
2023-12-13T07:23:04.791Z,54.06
2023-12-13T07:24:10.252Z,54.07
2023-12-13T07:25:16.007Z,53.95
2023-12-13T07:26:21.597Z,53.99
2023-12-13T07:27:27.036Z,53.81
2023-12-13T07:28:32.702Z,53.8
2023-12-13T07:29:38.157Z,53.74
2023-12-13T07:32:13.993Z,53.45
2023-12-13T07:33:19.737Z,53.44
2023-12-13T07:34:26.160Z,53.34
2023-12-13T07:35:31.739Z,53.34
2023-12-13T07:36:37.314Z,53.24
2023-12-13T07:37:42.903Z,53.26
2023-12-13T07:38:48.452Z,53.22
2023-12-13T07:39:54.395Z,53.24
2023-12-13T07:41:00.257Z,53.28
2023-12-13T07:42:05.831Z,53.25
2023-12-13T07:43:11.300Z,53.25
2023-12-13T07:44:16.749Z,53.46
2023-12-13T07:45:22.315Z,53.42
2023-12-13T07:46:28.863Z,53.53
2023-12-13T07:47:37.426Z,53.59
2023-12-13T07:48:43.369Z,53.54
2023-12-13T07:49:49.604Z,53.63
2023-12-13T07:50:55.522Z,53.74
2023-12-13T07:52:01.095Z,53.71
2023-12-13T07:53:06.764Z,53.75
2023-12-13T07:54:12.234Z,53.78
2023-12-13T07:55:17.759Z,53.9
2023-12-13T07:56:33.783Z,53.76
2023-12-13T07:57:39.305Z,53.79
2023-12-13T07:58:44.942Z,53.84
2023-12-13T07:59:50.466Z,53.9
2023-12-13T08:00:56.091Z,53.84
2023-12-13T08:02:01.655Z,53.82
2023-12-13T08:03:07.431Z,53.83
2023-12-13T08:04:12.900Z,53.77
2023-12-13T08:05:18.528Z,53.79
2023-12-13T08:06:24.024Z,53.77
2023-12-13T08:07:29.548Z,53.8
2023-12-13T08:08:35.062Z,53.76
2023-12-13T08:09:40.676Z,53.81
2023-12-13T08:10:46.323Z,53.79
2023-12-13T08:11:51.798Z,53.77
2023-12-13T08:12:57.272Z,53.76
2023-12-13T08:14:03.188Z,53.76
2023-12-13T08:15:08.734Z,53.77
2023-12-13T08:16:14.210Z,53.69
2023-12-13T08:17:20.351Z,53.69
2023-12-13T08:18:26.189Z,53.73
2023-12-13T08:19:31.841Z,53.82
2023-12-13T08:20:37.337Z,53.81
2023-12-13T08:21:42.808Z,53.87
2023-12-13T08:22:48.582Z,53.92
2023-12-13T08:23:54.534Z,53.93
2023-12-13T08:25:00.120Z,53.92
2023-12-13T08:26:05.583Z,53.99
2023-12-13T08:27:11.067Z,53.99
2023-12-13T08:28:16.748Z,53.95
2023-12-13T08:29:22.283Z,53.87
2023-12-13T08:30:27.885Z,53.84
2023-12-13T08:31:34.011Z,53.93
2023-12-13T08:32:39.733Z,53.93
2023-12-13T08:33:45.313Z,53.88
2023-12-13T08:34:51.039Z,53.74
2023-12-13T08:35:56.505Z,53.66
2023-12-13T08:37:02.012Z,53.62
2023-12-13T08:38:07.650Z,53.5
2023-12-13T08:39:13.155Z,53.45
2023-12-13T08:40:18.860Z,53.37
2023-12-13T08:41:24.373Z,53.36
2023-12-13T08:42:46.586Z,53.28
2023-12-13T08:43:52.408Z,53.25
2023-12-13T08:44:57.914Z,53.26
2023-12-13T08:46:03.373Z,53.32
2023-12-13T08:47:09.120Z,53.35
2023-12-13T08:48:14.855Z,53.38
2023-12-13T08:49:20.738Z,53.34
2023-12-13T08:50:26.355Z,53.39
2023-12-13T08:51:31.842Z,53.47
2023-12-13T08:52:37.392Z,53.39
2023-12-13T08:53:42.842Z,53.46
2023-12-13T08:54:48.307Z,53.5
2023-12-13T08:55:54.175Z,53.52
2023-12-13T08:56:59.651Z,53.6
2023-12-13T08:58:05.115Z,53.58
2023-12-13T08:59:10.610Z,53.71
2023-12-13T09:00:16.211Z,53.59
2023-12-13T09:01:29.744Z,53.64
2023-12-13T09:02:35.290Z,53.69
2023-12-13T09:03:40.916Z,53.64
2023-12-13T09:04:46.763Z,53.64
2023-12-13T09:05:52.377Z,53.69
2023-12-13T09:06:58.007Z,53.72
2023-12-13T09:08:03.780Z,53.71
2023-12-13T09:09:09.300Z,53.64
2023-12-13T09:10:14.940Z,53.6
2023-12-13T09:11:20.694Z,53.6
2023-12-13T09:12:26.128Z,53.59
2023-12-13T09:13:31.696Z,53.53
2023-12-13T09:14:37.188Z,53.6
2023-12-13T09:15:42.633Z,53.58
2023-12-13T09:16:48.201Z,53.56
2023-12-13T09:17:53.901Z,53.7
2023-12-13T09:18:59.697Z,53.68
2023-12-13T09:20:05.530Z,53.56
2023-12-13T09:21:11.106Z,53.57
2023-12-13T09:22:16.637Z,53.48
2023-12-13T09:23:22.124Z,53.31
2023-12-13T09:24:27.582Z,53.34
2023-12-13T09:25:33.232Z,53.18
2023-12-13T09:26:38.749Z,53.07
2023-12-13T09:27:45.269Z,53.06
2023-12-13T09:28:53.467Z,53.03
2023-12-13T09:29:59.055Z,52.99
2023-12-13T09:31:04.782Z,52.9
2023-12-13T09:32:10.289Z,52.87
2023-12-13T09:33:16.164Z,52.91
2023-12-13T09:34:21.893Z,52.9
2023-12-13T09:35:27.704Z,52.84
2023-12-13T09:36:33.180Z,52.85
2023-12-13T09:38:45.009Z,52.82
2023-12-13T09:40:02.244Z,52.85
2023-12-13T09:41:08.805Z,52.87
2023-12-13T09:42:14.265Z,52.85
2023-12-13T09:43:19.882Z,53.03
2023-12-13T09:44:25.371Z,53
2023-12-13T09:45:30.831Z,53.12
2023-12-13T09:46:36.415Z,53.12
2023-12-13T09:47:42.006Z,53.25
2023-12-13T09:48:47.593Z,53.21
2023-12-13T09:49:53.708Z,53.27
2023-12-13T09:50:59.378Z,53.25
2023-12-13T09:52:05.197Z,53.32
2023-12-13T09:53:11.127Z,53.38
2023-12-13T09:54:16.632Z,53.43
2023-12-13T09:55:22.411Z,53.39
2023-12-13T09:56:27.906Z,53.4
2023-12-13T09:57:33.334Z,53.43
2023-12-13T09:58:38.871Z,53.44
2023-12-13T09:59:44.357Z,53.46
2023-12-13T10:00:49.895Z,53.39
2023-12-13T10:01:55.521Z,53.39
2023-12-13T10:03:01.128Z,53.38
2023-12-13T10:04:06.637Z,53.38
2023-12-13T10:05:12.204Z,53.31
2023-12-13T10:06:17.744Z,53.3
2023-12-13T10:07:23.696Z,53.3
2023-12-13T10:08:29.195Z,53.24
2023-12-13T10:09:34.632Z,53.34
2023-12-13T10:10:40.213Z,53.36
2023-12-13T10:11:45.697Z,53.31
2023-12-13T10:12:51.176Z,53.29
2023-12-13T10:13:56.773Z,53.28
2023-12-13T10:15:02.306Z,53.24
2023-12-13T10:16:07.785Z,53.23
2023-12-13T10:17:22.345Z,53.22
2023-12-13T10:18:27.971Z,53.2
2023-12-13T10:19:33.536Z,53.22
2023-12-13T10:20:40.738Z,53.22
2023-12-13T10:21:46.194Z,53.23
2023-12-13T10:22:52.106Z,53.26
2023-12-13T10:23:57.598Z,53.27
2023-12-13T10:25:03.033Z,53.29
2023-12-13T10:26:08.523Z,53.22
2023-12-13T10:27:14.014Z,53.22
2023-12-13T10:28:19.663Z,53.19
2023-12-13T10:29:25.235Z,53.3
2023-12-13T10:30:30.881Z,53.1
2023-12-13T10:31:36.490Z,53.1
2023-12-13T10:32:42.139Z,53.13
2023-12-13T10:33:47.772Z,53.01
2023-12-13T10:34:53.548Z,53.03
2023-12-13T10:35:59.030Z,52.98
2023-12-13T10:37:04.462Z,52.94
2023-12-13T10:38:10.093Z,52.91
2023-12-13T10:39:15.535Z,52.93
2023-12-13T10:40:21.111Z,52.96
2023-12-13T10:41:26.582Z,53
2023-12-13T10:42:32.540Z,53.02
2023-12-13T10:43:38.267Z,53.02
2023-12-13T10:44:43.883Z,53
2023-12-13T10:45:49.339Z,52.99
2023-12-13T10:46:55.167Z,53.04
2023-12-13T10:48:00.905Z,53.18
2023-12-13T10:49:06.863Z,53.24
2023-12-13T10:50:15.317Z,52.9
2023-12-13T10:51:20.791Z,53.07
2023-12-13T10:52:26.293Z,52.3
2023-12-13T10:53:31.753Z,51.85
2023-12-13T10:54:37.221Z,51.47
2023-12-13T10:55:42.786Z,51.24
2023-12-13T10:56:48.289Z,51.15
2023-12-13T10:57:53.822Z,50.95
2023-12-13T10:58:59.359Z,50.69
2023-12-13T11:00:04.967Z,50.65
2023-12-13T11:01:10.595Z,50.58
2023-12-13T11:02:16.090Z,50.38
2023-12-13T11:03:21.923Z,50.38
2023-12-13T11:04:27.492Z,50.26
2023-12-13T11:05:33.006Z,50.14
2023-12-13T11:06:38.624Z,49.97
2023-12-13T11:07:44.267Z,49.91
2023-12-13T11:08:49.795Z,49.68
2023-12-13T11:09:55.304Z,49.65
2023-12-13T11:11:00.954Z,49.44
2023-12-13T11:12:06.505Z,49.37
2023-12-13T11:13:11.976Z,49.18
2023-12-13T11:14:17.406Z,49.34
2023-12-13T11:15:23.242Z,49.36
2023-12-13T11:16:29.448Z,49.96
2023-12-13T11:17:36.740Z,50.05
2023-12-13T11:18:43.081Z,50.29
2023-12-13T11:19:48.815Z,50.57
2023-12-13T11:20:54.413Z,50.76
2023-12-13T11:21:59.910Z,50.81
2023-12-13T11:23:05.463Z,51
2023-12-13T11:24:11.182Z,50.99
2023-12-13T11:25:16.683Z,51.1
2023-12-13T11:26:22.178Z,51.17
2023-12-13T11:27:30.463Z,51.24
2023-12-13T11:28:36.089Z,51.43
2023-12-13T11:29:41.616Z,51.32
2023-12-13T11:30:47.157Z,51.52
2023-12-13T11:31:52.904Z,51.44
2023-12-13T11:32:59.021Z,51.45
2023-12-13T11:34:04.845Z,51.53
2023-12-13T11:35:10.323Z,51.55
2023-12-13T11:36:15.796Z,51.59
2023-12-13T11:37:21.324Z,51.6
2023-12-13T11:38:26.822Z,51.75
2023-12-13T11:39:32.332Z,51.73
2023-12-13T11:40:37.976Z,51.85
2023-12-13T11:41:43.502Z,51.91
2023-12-13T11:42:48.983Z,51.9
2023-12-13T11:43:54.622Z,51.92
2023-12-13T11:45:00.152Z,51.98
2023-12-13T11:46:05.691Z,52.05
2023-12-13T11:47:11.466Z,52.14
2023-12-13T11:48:17.247Z,52.09
2023-12-13T11:49:23.133Z,52.13
2023-12-13T11:50:28.623Z,52.1
2023-12-13T11:51:34.121Z,52.12
2023-12-13T11:52:39.766Z,52.16
2023-12-13T11:53:45.253Z,52.15
2023-12-13T11:54:50.715Z,52.12
2023-12-13T11:55:56.355Z,52.13
2023-12-13T11:57:01.888Z,52.17
2023-12-13T11:58:07.354Z,52.11
2023-12-13T11:59:12.832Z,52.15
2023-12-13T12:00:18.308Z,52.11
2023-12-13T12:01:24.330Z,52.05
2023-12-13T12:02:29.975Z,51.88
2023-12-13T12:03:35.500Z,51.87
2023-12-13T12:04:41.275Z,51.72
2023-12-13T12:05:47.525Z,51.68
2023-12-13T12:06:52.973Z,51.46
2023-12-13T12:07:58.584Z,51.49
2023-12-13T12:09:04.135Z,51.35
2023-12-13T12:10:09.766Z,51.45
2023-12-13T12:11:15.218Z,51.29
2023-12-13T12:12:20.737Z,51.39
2023-12-13T12:13:26.403Z,51.28
2023-12-13T12:14:31.983Z,51.37
2023-12-13T12:15:37.430Z,51.39
2023-12-13T12:16:42.962Z,51.42
2023-12-13T12:17:48.993Z,51.53
2023-12-13T12:18:54.826Z,51.61
2023-12-13T12:20:00.631Z,51.51
2023-12-13T12:21:06.173Z,51.59
2023-12-13T12:22:11.642Z,51.65
2023-12-13T12:23:17.313Z,51.67
2023-12-13T12:24:22.837Z,51.76
2023-12-13T12:25:28.658Z,51.81
2023-12-13T12:26:34.141Z,51.82
2023-12-13T12:27:39.697Z,51.87
2023-12-13T12:28:45.392Z,51.86
2023-12-13T12:29:53.773Z,51.98
2023-12-13T12:31:00.017Z,51.98
2023-12-13T12:32:05.642Z,51.99
2023-12-13T12:33:11.434Z,52.07
2023-12-13T12:34:17.258Z,52.07
2023-12-13T12:35:22.727Z,52.08
2023-12-13T12:36:28.241Z,52.2
2023-12-13T12:37:34.314Z,52.28
2023-12-13T12:38:39.909Z,52.22
2023-12-13T12:39:45.435Z,52.25
2023-12-13T12:40:51.105Z,52.32
2023-12-13T12:41:56.856Z,52.39
2023-12-13T12:43:02.346Z,52.32
2023-12-13T12:44:08.026Z,52.36
2023-12-13T12:45:13.575Z,52.43
2023-12-13T12:46:19.136Z,52.4
2023-12-13T12:47:24.773Z,52.41
2023-12-13T12:48:30.608Z,52.4
2023-12-13T12:49:38.693Z,52.45
2023-12-13T12:50:44.181Z,52.53
2023-12-13T12:51:49.675Z,52.5
2023-12-13T12:52:55.165Z,52.51
2023-12-13T12:54:00.665Z,52.46
2023-12-13T12:55:06.127Z,52.44
2023-12-13T12:56:15.400Z,52.42
2023-12-13T12:57:20.973Z,52.42
2023-12-13T12:58:26.637Z,52.42
2023-12-13T12:59:32.110Z,52.44
2023-12-13T13:00:37.786Z,52.46
2023-12-13T13:01:43.325Z,52.44
2023-12-13T13:02:48.869Z,52.46
2023-12-13T13:03:54.635Z,52.45
2023-12-13T13:05:00.491Z,52.48
2023-12-13T13:06:06.262Z,52.48
2023-12-13T13:07:11.916Z,52.48
2023-12-13T13:08:17.596Z,52.5
2023-12-13T13:09:23.398Z,52.53
2023-12-13T13:10:29.081Z,52.55
2023-12-13T13:11:34.541Z,52.57
2023-12-13T13:12:40.011Z,52.52
2023-12-13T13:13:45.543Z,52.57
2023-12-13T13:14:51.110Z,52.58
2023-12-13T13:15:56.585Z,52.55
2023-12-13T13:17:02.276Z,52.57
2023-12-13T13:18:07.919Z,52.56
2023-12-13T13:19:13.504Z,52.52
2023-12-13T13:20:19.190Z,52.59
2023-12-13T13:21:24.661Z,52.55
2023-12-13T13:22:30.273Z,52.56
2023-12-13T13:23:36.400Z,52.6
2023-12-13T13:24:41.876Z,52.63
2023-12-13T13:25:47.452Z,52.57
2023-12-13T13:26:52.993Z,52.59
2023-12-13T13:27:58.517Z,52.44
2023-12-13T13:29:04.333Z,52.39
2023-12-13T13:30:10.003Z,52.38
2023-12-13T13:31:15.648Z,52.34
2023-12-13T13:32:21.389Z,52.25
2023-12-13T13:33:27.297Z,52.22
2023-12-13T13:34:33.038Z,52.17
2023-12-13T13:35:38.539Z,52.24
2023-12-13T13:36:44.035Z,52.2
2023-12-13T13:37:49.675Z,52.17
2023-12-13T13:38:55.491Z,52.23
2023-12-13T13:40:00.948Z,52.2
2023-12-13T13:41:06.760Z,52.32
2023-12-13T13:42:12.411Z,52.31
2023-12-13T13:43:17.869Z,52.23
2023-12-13T13:44:23.387Z,52.27
2023-12-13T13:45:28.831Z,52.32
2023-12-13T13:46:34.502Z,52.33
2023-12-13T13:47:41.502Z,52.36
2023-12-13T13:48:47.073Z,52.32
2023-12-13T13:49:53.023Z,52.29
2023-12-13T13:50:58.601Z,52.4
2023-12-13T13:52:04.152Z,52.43
2023-12-13T13:53:09.826Z,52.45
2023-12-13T13:54:15.319Z,52.45
2023-12-13T13:55:20.942Z,52.56
2023-12-13T13:56:39.783Z,52.49
2023-12-13T13:57:45.292Z,52.58
2023-12-13T13:58:50.972Z,52.54
2023-12-13T13:59:56.434Z,52.64
2023-12-13T14:01:02.036Z,52.67
2023-12-13T14:02:07.750Z,52.6
2023-12-13T14:03:13.529Z,52.69
2023-12-13T14:04:19.087Z,52.71
2023-12-13T14:05:24.919Z,52.68
2023-12-13T14:06:30.453Z,52.69
2023-12-13T14:07:37.570Z,52.71
2023-12-13T14:08:43.441Z,52.67
2023-12-13T14:09:48.971Z,52.69
2023-12-13T14:10:54.788Z,52.61
2023-12-13T14:12:01.785Z,52.62
2023-12-13T14:13:07.242Z,52.61